Country
Station

 

Weather  for  Fort Collins Automatic Weather Observing/Reporting System  -  United States    United States

  
27 °C (81 °F)
    
 
 

Current METAR for Fort Collins Automatic Weather Observing/Reporting System is :

KFNL 171756Z AUTO 21005KT 10SM CLR 27/11 A3025 RMK AO2 SLP180 6//// T02670106 10272 20150 58006 PNO $

 

This is a report for Fort Collins Automatic Weather Observing/Reporting System - United States.
 
The report was made 54 minutes ago, at 17:56 UTC .
The wind was blowing at a speed of 2.6 meters per second (5.8 miles per hour) from south/southwest (210°).
 
The temperature was 27 °C (81 °F), with a dew-point at 11 °C (52 °F).
The temperature felt like 27 °C (80 °F).
 
The atmospheric pressure was 1024 hPa (30.25 inHg).
The relative humidity was 36.8%.
 
The sky was clear.
 
The overall visibility was 16.1 kilometers (10.0 miles).
 

 
 
 
 

Country :   A   B   C   D   E   F   G   H   I   J   K   L   M   N   O   P   Q   R   S   T   U   V   W   Y   Z

 

Site Info  |  Disclaimer  |  Credits  |  Privacy
Contact us  |  Add to favorites
© 2013-2018 METARs - All rights reserved